Time;durP1;ratioP1;P1;durP2;ratioP2;P2;SDS_P1;SDS_P2;PMS_P1;PMS_P2;Temp;Humidity;BMP_temperature;BMP_pressure;BME280_temperature;BME280_humidity;BME280_pressure;Samples;Min_cycle;Max_cycle;Signal;HPM_P1;HPM_P2
2022/10/25 00:01:45;;;;;;;23.83;22.40;;;10.10;99.90;;;;;;5066805;28;20261;-80
2022/10/25 00:04:12;;;;;;;22.23;21.03;;;10.10;99.90;;;;;;5073230;28;20210;-79
2022/10/25 00:06:38;;;;;;;12.30;11.60;;;10.00;99.90;;;;;;5075458;28;20190;-80
2022/10/25 00:09:04;;;;;;;28.97;27.37;;;10.00;99.90;;;;;;5074321;28;20189;-79
2022/10/25 00:11:31;;;;;;;19.50;18.60;;;10.00;99.90;;;;;;5072167;28;20258;-79
2022/10/25 00:14:00;;;;;;;42.47;40.40;;;10.00;99.90;;;;;;5064734;28;20218;-79
2022/10/25 00:16:29;;;;;;;25.27;23.97;;;10.10;99.90;;;;;;5064595;28;20221;-79
2022/10/25 00:18:55;;;;;;;15.93;15.13;;;10.00;99.90;;;;;;5064549;28;20182;-82
2022/10/25 00:21:21;;;;;;;6.43;6.00;;;10.00;99.90;;;;;;5065217;28;20179;-79
2022/10/25 00:23:47;;;;;;;7.50;7.00;;;10.00;99.90;;;;;;5065012;28;20186;-79
2022/10/25 00:26:13;;;;;;;9.13;8.63;;;9.90;99.90;;;;;;5065223;28;20274;-80
2022/10/25 00:28:38;;;;;;;14.03;13.20;;;9.90;99.90;;;;;;5067085;28;20194;-80
2022/10/25 00:31:09;;;;;;;31.37;29.57;;;9.90;99.90;;;;;;5063421;28;20182;-79
2022/10/25 00:33:36;;;;;;;66.10;62.70;;;9.90;99.90;;;;;;5062492;28;20297;-80
2022/10/25 00:36:07;;;;;;;69.17;65.70;;;10.00;99.90;;;;;;5047469;28;20675;-79
2022/10/25 00:38:34;;;;;;;32.20;30.63;;;10.00;99.90;;;;;;5065019;28;20266;-80
2022/10/25 00:41:00;;;;;;;39.27;37.43;;;10.00;99.90;;;;;;5062850;28;20178;-80
2022/10/25 00:43:37;;;;;;;51.97;48.83;;;10.10;99.90;;;;;;5073655;28;20193;-78
2022/10/25 00:46:17;;;;;;;72.03;68.37;;;10.10;99.90;;;;;;5071127;28;20206;-80
2022/10/25 00:49:00;;;;;;;24.73;23.33;;;10.20;99.90;;;;;;5068185;28;20182;-79
2022/10/25 00:51:51;;;;;;;5.10;4.90;;;10.10;99.90;;;;;;5076784;28;20189;-79
2022/10/25 00:54:35;;;;;;;8.03;7.67;;;10.20;99.90;;;;;;5068987;28;20222;-80
2022/10/25 00:57:07;;;;;;;11.57;11.03;;;10.10;99.90;;;;;;5067756;28;20182;-80
2022/10/25 00:59:33;;;;;;;28.73;27.23;;;10.20;99.90;;;;;;5068890;28;20178;-80
2022/10/25 01:01:59;;;;;;;46.40;44.13;;;10.20;99.90;;;;;;5072176;28;20240;-80
2022/10/25 01:04:28;;;;;;;52.27;49.67;;;10.20;99.90;;;;;;5067832;28;20186;-79
2022/10/25 01:06:54;;;;;;;41.87;39.77;;;10.20;99.90;;;;;;5068816;28;20182;-79
2022/10/25 01:09:25;;;;;;;44.27;41.77;;;10.30;99.90;;;;;;5067566;28;20184;-79
2022/10/25 01:11:51;;;;;;;38.77;36.87;;;10.40;99.90;;;;;;5067544;28;20214;-79
2022/10/25 01:14:18;;;;;;;29.57;27.80;;;10.50;99.90;;;;;;5068831;28;20214;-80
2022/10/25 01:16:49;;;;;;;27.00;25.57;;;10.50;99.90;;;;;;5067930;28;20220;-79
2022/10/25 01:19:23;;;;;;;19.97;18.87;;;10.50;99.90;;;;;;5069621;28;20228;-79
2022/10/25 01:21:57;;;;;;;42.00;39.87;;;10.40;99.90;;;;;;5068275;28;20181;-80
2022/10/25 01:25:08;;;;;;;41.37;39.13;;;10.50;99.90;;;;;;5071950;28;20186;-80
2022/10/25 01:27:59;;;;;;;19.40;18.00;;;10.40;99.90;;;;;;5083842;28;20191;-79
2022/10/25 01:30:52;;;;;;;21.23;20.03;;;10.40;99.90;;;;;;5053652;28;20197;-79
2022/10/25 01:33:49;;;;;;;41.83;39.63;;;10.40;99.90;;;;;;5074846;28;20226;-79
2022/10/25 01:36:59;;;;;;;41.10;38.77;;;10.40;99.90;;;;;;5074574;28;20206;-79
2022/10/25 01:39:30;;;;;;;27.23;25.53;;;10.40;99.90;;;;;;5075719;28;20190;-79
2022/10/25 01:42:07;;;;;;;9.93;6.67;;;10.40;99.90;;;;;;5073212;28;20178;-80
2022/10/25 01:44:53;;;;;;;16.63;15.83;;;10.30;99.90;;;;;;5076523;28;20183;-79
2022/10/25 01:47:32;;;;;;;21.50;20.40;;;10.20;99.90;;;;;;5069320;28;20198;-80
2022/10/25 01:50:11;;;;;;;19.60;18.43;;;10.20;99.90;;;;;;5058647;28;20187;-80
2022/10/25 01:52:37;;;;;;;25.00;23.70;;;10.10;99.90;;;;;;5054864;28;20267;-79
2022/10/25 01:55:07;;;;;;;23.70;22.53;;;10.10;99.90;;;;;;5071679;28;20209;-79
2022/10/25 01:58:05;;;;;;;20.40;19.37;;;10.10;99.90;;;;;;5066899;28;20216;-80
2022/10/25 02:00:56;;;;;;;16.87;15.80;;;10.00;99.90;;;;;;5045755;28;20191;-80
2022/10/25 02:03:49;;;;;;;15.90;15.00;;;10.00;99.90;;;;;;5064378;28;20197;-79
2022/10/25 02:06:27;;;;;;;12.90;11.97;;;9.90;99.90;;;;;;5065998;28;20198;-80
2022/10/25 02:09:07;;;;;;;6.73;6.27;;;9.80;99.90;;;;;;5064835;28;20190;-80
2022/10/25 02:11:34;;;;;;;8.23;7.63;;;9.80;99.90;;;;;;5064009;28;20192;-79
2022/10/25 02:14:23;;;;;;;20.70;19.30;;;9.80;99.90;;;;;;5063027;28;20281;-79
2022/10/25 02:17:13;;;;;;;40.80;38.23;;;9.80;99.90;;;;;;5062269;28;20222;-80
2022/10/25 02:19:46;;;;;;;46.20;44.00;;;9.80;99.90;;;;;;5060663;28;20190;-79
2022/10/25 02:22:14;;;;;;;64.10;60.90;;;9.80;99.90;;;;;;5064886;28;20209;-81
2022/10/25 02:24:43;;;;;;;45.27;42.93;;;9.80;99.90;;;;;;5055263;28;20553;-72
2022/10/25 02:27:11;;;;;;;37.13;35.03;;;9.70;99.90;;;;;;5047803;28;20221;-73
2022/10/25 02:29:38;;;;;;;54.17;51.17;;;9.70;99.90;;;;;;5052330;28;20180;-72
2022/10/25 02:32:04;;;;;;;54.20;51.50;;;9.60;99.90;;;;;;5050502;28;20182;-73
2022/10/25 02:34:30;;;;;;;26.93;25.33;;;9.60;99.90;;;;;;5051904;28;20210;-73
2022/10/25 02:36:56;;;;;;;23.90;22.63;;;9.60;99.90;;;;;;5051285;28;20182;-73
2022/10/25 02:39:24;;;;;;;22.40;21.10;;;9.60;99.90;;;;;;5051553;28;20566;-73
2022/10/25 02:41:49;;;;;;;18.70;17.70;;;9.60;99.90;;;;;;5051193;28;20183;-73
2022/10/25 02:44:15;;;;;;;17.37;16.00;;;9.60;99.90;;;;;;5051857;28;20178;-73
2022/10/25 02:46:41;;;;;;;12.43;11.53;;;9.60;99.90;;;;;;5051284;28;20206;-73
2022/10/25 02:49:07;;;;;;;23.43;21.83;;;9.70;99.90;;;;;;5051246;28;20181;-73
2022/10/25 02:51:32;;;;;;;20.03;18.53;;;9.60;99.90;;;;;;5051845;28;20174;-72
2022/10/25 02:53:58;;;;;;;26.80;25.23;;;9.60;99.90;;;;;;5050416;28;20210;-73
2022/10/25 02:56:24;;;;;;;29.10;27.30;;;9.50;99.90;;;;;;5050853;28;20220;-73
2022/10/25 02:58:53;;;;;;;30.87;29.17;;;9.50;99.90;;;;;;5050950;28;20183;-73
2022/10/25 03:01:20;;;;;;;33.17;31.40;;;9.50;99.90;;;;;;5050374;28;20569;-73
2022/10/25 03:03:46;;;;;;;20.57;19.23;;;9.50;99.90;;;;;;5052097;28;20178;-73
2022/10/25 03:06:12;;;;;;;22.33;20.93;;;9.50;99.90;;;;;;5051508;28;20208;-73
2022/10/25 03:08:39;;;;;;;26.80;25.10;;;9.50;99.90;;;;;;5050946;28;20189;-73
2022/10/25 03:11:06;;;;;;;33.80;31.90;;;9.50;99.90;;;;;;5051679;28;20193;-73
2022/10/25 03:13:32;;;;;;;23.93;22.27;;;9.50;99.90;;;;;;5051360;28;20210;-72
2022/10/25 03:15:57;;;;;;;23.93;22.27;;;9.50;99.90;;;;;;5050878;28;20214;-73
2022/10/25 03:18:23;;;;;;;32.40;30.70;;;9.50;99.90;;;;;;5050635;28;20174;-74
2022/10/25 03:20:49;;;;;;;24.50;23.17;;;9.50;99.90;;;;;;5032186;28;20600;-74
2022/10/25 03:23:15;;;;;;;29.67;28.03;;;9.50;99.90;;;;;;5031625;28;20638;-73
2022/10/25 03:25:41;;;;;;;62.67;59.43;;;9.50;99.90;;;;;;5043042;28;20244;-73
2022/10/25 03:28:07;;;;;;;26.77;25.23;;;9.50;99.90;;;;;;5063845;28;20178;-72
2022/10/25 03:30:33;;;;;;;48.47;45.97;;;9.50;99.90;;;;;;5050675;28;20186;-73
2022/10/25 03:32:59;;;;;;;46.90;44.43;;;9.60;99.90;;;;;;5050189;28;20709;-74
2022/10/25 03:35:26;;;;;;;45.40;43.07;;;9.60;99.90;;;;;;5051067;28;20199;-74
2022/10/25 03:37:51;;;;;;;51.20;48.13;;;9.50;99.90;;;;;;5050887;28;20698;-74
2022/10/25 03:40:18;;;;;;;20.80;19.30;;;9.60;99.90;;;;;;5051188;28;20270;-74
2022/10/25 03:42:44;;;;;;;52.47;49.70;;;9.60;99.90;;;;;;5051057;28;20540;-74
2022/10/25 03:45:11;;;;;;;42.57;40.33;;;9.50;99.90;;;;;;5051042;28;20206;-74
2022/10/25 03:47:37;;;;;;;22.30;21.00;;;9.50;99.90;;;;;;5050542;28;20188;-73
2022/10/25 03:50:04;;;;;;;40.37;38.23;;;9.40;99.90;;;;;;5049981;28;20251;-74
2022/10/25 03:52:30;;;;;;;62.43;59.20;;;9.40;99.90;;;;;;5049847;28;20240;-74
2022/10/25 03:54:56;;;;;;;24.93;23.23;;;9.40;99.90;;;;;;5050860;28;20198;-73
2022/10/25 03:57:22;;;;;;;75.40;71.43;;;9.50;99.90;;;;;;5050335;28;20581;-73
2022/10/25 03:59:47;;;;;;;36.43;34.60;;;9.50;99.90;;;;;;5049828;28;20186;-73
2022/10/25 04:02:14;;;;;;;48.53;45.90;;;9.40;99.90;;;;;;5049727;28;20267;-74
2022/10/25 04:04:40;;;;;;;80.23;76.23;;;9.40;99.90;;;;;;5050964;28;20178;-74
2022/10/25 04:07:06;;;;;;;73.77;69.97;;;9.40;99.90;;;;;;5048978;28;20181;-73
2022/10/25 04:09:32;;;;;;;83.93;79.80;;;9.40;99.90;;;;;;5048988;28;20183;-74
2022/10/25 04:11:59;;;;;;;41.70;39.57;;;9.40;99.90;;;;;;5050083;28;20198;-73
2022/10/25 04:14:25;;;;;;;70.17;66.43;;;9.40;99.90;;;;;;5030036;28;20590;-73
2022/10/25 04:16:50;;;;;;;42.37;39.97;;;9.30;99.90;;;;;;5060136;22;20313;-77
2022/10/25 04:19:16;;;;;;;64.00;60.67;;;9.30;99.90;;;;;;5023965;28;20183;-77
2022/10/25 04:21:42;;;;;;;65.23;61.60;;;9.20;99.90;;;;;;5031110;28;20202;-77
2022/10/25 04:24:08;;;;;;;63.70;60.30;;;9.20;99.90;;;;;;5022716;28;20210;-77
2022/10/25 04:26:35;;;;;;;91.87;87.17;;;9.20;99.90;;;;;;5018379;28;20334;-78
2022/10/25 04:29:02;;;;;;;116.20;110.17;;;9.20;99.90;;;;;;5029673;28;20187;-72
2022/10/25 04:31:28;;;;;;;42.63;39.83;;;9.20;99.90;;;;;;5032311;28;20558;-76
2022/10/25 04:33:55;;;;;;;40.97;38.70;;;9.10;99.90;;;;;;5034884;28;20632;-77
2022/10/25 04:36:22;;;;;;;60.30;56.73;;;9.20;99.90;;;;;;5032871;28;20205;-72
2022/10/25 04:38:51;;;;;;;68.43;64.73;;;9.10;99.90;;;;;;5033640;28;20198;-72
2022/10/25 04:41:18;;;;;;;115.30;109.50;;;9.10;99.90;;;;;;5032830;28;20666;-72
2022/10/25 04:43:44;;;;;;;106.50;101.00;;;9.20;99.90;;;;;;5034677;28;20191;-72
2022/10/25 04:46:10;;;;;;;87.97;83.57;;;9.10;99.90;;;;;;5032865;28;20252;-73
2022/10/25 04:48:40;;;;;;;80.97;76.53;;;9.10;99.90;;;;;;5032752;28;20179;-73
2022/10/25 04:51:08;;;;;;;63.60;60.17;;;9.10;99.90;;;;;;5032763;28;20597;-73
2022/10/25 04:53:33;;;;;;;93.97;89.10;;;9.10;99.90;;;;;;5033739;28;20206;-74
2022/10/25 04:56:01;;;;;;;20.17;18.93;;;9.00;99.90;;;;;;5034726;28;20203;-72
2022/10/25 04:58:27;;;;;;;19.63;18.07;;;9.00;99.90;;;;;;5047438;28;20181;-72
2022/10/25 05:00:58;;;;;;;35.50;33.30;;;9.00;99.90;;;;;;5033193;28;20272;-71
2022/10/25 05:03:24;;;;;;;46.33;43.90;;;9.00;99.90;;;;;;5033736;28;20203;-75
2022/10/25 05:05:49;;;;;;;52.60;49.43;;;9.00;99.90;;;;;;5033511;28;20207;-76
2022/10/25 05:08:15;;;;;;;98.57;93.37;;;9.00;99.90;;;;;;5032933;28;20214;-75
2022/10/25 05:10:41;;;;;;;39.13;37.10;;;8.90;99.90;;;;;;5033455;28;20186;-75
2022/10/25 05:13:07;;;;;;;49.70;46.90;;;8.90;99.90;;;;;;5033740;28;20683;-75
2022/10/25 05:15:32;;;;;;;59.00;55.63;;;9.00;99.90;;;;;;5033048;28;20194;-75
2022/10/25 05:17:59;;;;;;;48.43;45.57;;;9.00;99.90;;;;;;5033489;28;20183;-75
2022/10/25 05:20:25;;;;;;;41.17;38.87;;;9.00;99.90;;;;;;5032813;28;20211;-75
2022/10/25 05:22:51;;;;;;;39.80;37.30;;;9.10;99.90;;;;;;5033165;28;20663;-75
2022/10/25 05:25:17;;;;;;;116.73;109.87;;;9.10;99.90;;;;;;5032978;28;20191;-74
2022/10/25 05:27:43;;;;;;;109.80;103.97;;;9.10;99.90;;;;;;5032602;28;20206;-75
2022/10/25 05:30:09;;;;;;;40.33;37.83;;;9.10;99.90;;;;;;5032720;28;20229;-75
2022/10/25 05:32:35;;;;;;;29.27;27.37;;;9.20;99.90;;;;;;5030681;28;20207;-75
2022/10/25 05:35:01;;;;;;;105.40;99.90;;;9.10;99.90;;;;;;5032919;28;20186;-75
2022/10/25 05:37:27;;;;;;;32.50;30.53;;;9.20;99.90;;;;;;5031129;28;20207;-75
2022/10/25 05:39:52;;;;;;;78.20;73.80;;;9.10;99.90;;;;;;5038155;28;20175;-73
2022/10/25 05:42:18;;;;;;;65.30;61.80;;;9.10;99.90;;;;;;5039550;28;20208;-74
2022/10/25 05:44:44;;;;;;;75.27;71.23;;;9.00;99.90;;;;;;5032928;28;20183;-73
2022/10/25 05:47:11;;;;;;;30.60;28.53;;;9.00;99.90;;;;;;5032507;28;20713;-74
2022/10/25 05:49:39;;;;;;;62.30;59.00;;;8.90;99.90;;;;;;5033451;28;20188;-75
2022/10/25 05:52:08;;;;;;;58.53;55.37;;;8.90;99.90;;;;;;5032545;28;20174;-74
2022/10/25 05:54:34;;;;;;;28.07;26.57;;;8.80;99.90;;;;;;5032150;28;20211;-75
2022/10/25 05:57:00;;;;;;;7.50;6.83;;;8.80;99.90;;;;;;5031915;28;20578;-75
2022/10/25 05:59:26;;;;;;;11.73;10.70;;;8.80;99.90;;;;;;5030908;28;20190;-74
2022/10/25 06:01:51;;;;;;;65.60;61.87;;;8.80;99.90;;;;;;5031540;28;20179;-74
2022/10/25 06:04:17;;;;;;;52.50;49.67;;;8.80;99.90;;;;;;5032237;28;20183;-74
2022/10/25 06:06:45;;;;;;;49.23;46.17;;;8.80;99.90;;;;;;5032322;28;20573;-76
2022/10/25 06:09:12;;;;;;;46.53;43.73;;;8.80;99.90;;;;;;5031388;28;20187;-75
2022/10/25 06:11:38;;;;;;;53.47;49.73;;;8.90;99.90;;;;;;5031704;28;20186;-72
2022/10/25 06:14:05;;;;;;;42.37;39.37;;;9.00;99.90;;;;;;5030989;28;20594;-74
2022/10/25 06:16:31;;;;;;;38.73;36.33;;;9.00;99.90;;;;;;5031652;28;20249;-74
2022/10/25 06:18:58;;;;;;;27.47;25.33;;;9.20;99.90;;;;;;5034279;28;20302;-74
2022/10/25 06:21:28;;;;;;;27.97;26.10;;;9.20;99.90;;;;;;5034529;28;20175;-74
2022/10/25 06:23:54;;;;;;;20.03;18.60;;;9.30;99.90;;;;;;5041209;28;20207;-74
2022/10/25 06:26:25;;;;;;;73.37;69.30;;;9.40;99.90;;;;;;5032508;28;20243;-74
2022/10/25 06:28:53;;;;;;;58.77;55.20;;;9.50;99.90;;;;;;5031488;28;20182;-74
2022/10/25 06:31:19;;;;;;;50.97;47.47;;;9.60;99.90;;;;;;5023455;28;20270;-75
2022/10/25 06:33:46;;;;;;;54.90;51.60;;;9.70;99.90;;;;;;5025553;28;20506;-76
2022/10/25 06:36:15;;;;;;;48.90;46.07;;;9.70;99.90;;;;;;5010362;28;20192;-75
2022/10/25 06:38:42;;;;;;;23.83;21.77;;;9.80;99.90;;;;;;5011640;28;20274;-75
2022/10/25 06:41:17;;;;;;;28.27;26.30;;;9.90;99.90;;;;;;5022209;28;20179;-74
2022/10/25 06:43:43;;;;;;;27.77;25.80;;;9.90;99.90;;;;;;5030679;28;20185;-74
2022/10/25 06:46:19;;;;;;;27.60;25.67;;;9.90;99.90;;;;;;5031157;28;20691;-75
2022/10/25 06:48:44;;;;;;;26.27;24.50;;;10.00;99.90;;;;;;5031220;28;20186;-75
2022/10/25 06:51:10;;;;;;;30.67;28.27;;;10.10;99.90;;;;;;5029872;28;20696;-76
2022/10/25 06:53:37;;;;;;;27.17;25.07;;;10.20;99.90;;;;;;5031271;28;20211;-75
2022/10/25 06:56:05;;;;;;;24.03;22.53;;;10.30;99.90;;;;;;5019641;28;20200;-75
2022/10/25 06:58:32;;;;;;;22.23;20.63;;;10.40;99.90;;;;;;5009904;28;20890;-75
2022/10/25 07:01:03;;;;;;;25.57;23.17;;;10.50;99.90;;;;;;5022487;28;20702;-75
2022/10/25 07:03:33;;;;;;;48.67;45.53;;;10.60;99.90;;;;;;5031836;28;20197;-76
2022/10/25 07:06:05;;;;;;;26.37;24.67;;;10.80;99.90;;;;;;5030153;28;20213;-74
2022/10/25 07:08:32;;;;;;;82.40;77.37;;;11.20;99.90;;;;;;5029716;28;20304;-75
2022/10/25 07:10:58;;;;;;;176.17;166.10;;;11.50;99.90;;;;;;5031366;28;20638;-75
2022/10/25 07:13:24;;;;;;;241.33;227.67;;;11.70;99.90;;;;;;5031221;28;20207;-76
2022/10/25 07:15:50;;;;;;;33.30;31.30;;;11.90;99.90;;;;;;5031450;28;20650;-76
2022/10/25 07:18:16;;;;;;;14.10;12.77;;;12.10;99.90;;;;;;5031537;28;20270;-76
2022/10/25 07:20:47;;;;;;;13.87;12.57;;;12.10;99.90;;;;;;5032156;28;20185;-76
2022/10/25 07:23:16;;;;;;;15.63;14.63;;;12.20;99.90;;;;;;5032633;28;20224;-76
2022/10/25 07:25:42;;;;;;;83.30;78.23;;;12.40;99.90;;;;;;5031857;28;20175;-76
2022/10/25 07:28:08;;;;;;;85.67;80.73;;;12.60;99.90;;;;;;5034007;28;20273;-77
2022/10/25 07:30:34;;;;;;;36.00;33.70;;;12.60;99.90;;;;;;5033928;28;20178;-77
2022/10/25 07:33:02;;;;;;;86.10;81.60;;;12.60;99.90;;;;;;5035539;28;20211;-76
2022/10/25 07:35:27;;;;;;;116.60;110.37;;;12.90;99.90;;;;;;5047521;28;20224;-76
2022/10/25 07:37:53;;;;;;;176.17;166.07;;;13.10;99.90;;;;;;5052035;28;20179;-77
2022/10/25 07:40:19;;;;;;;65.77;62.10;;;13.40;99.90;;;;;;5038283;28;20271;-78
2022/10/25 07:42:47;;;;;;;44.27;41.87;;;13.60;99.90;;;;;;5043114;28;20278;-78
2022/10/25 07:45:13;;;;;;;25.90;24.07;;;13.60;99.90;;;;;;5042078;28;20175;-77
2022/10/25 07:47:39;;;;;;;313.30;295.43;;;13.80;99.90;;;;;;5041612;28;20298;-78
2022/10/25 07:50:05;;;;;;;92.13;87.07;;;14.20;99.90;;;;;;5039506;28;20263;-77
2022/10/25 07:52:30;;;;;;;74.50;70.53;;;14.40;99.90;;;;;;5038303;28;20206;-76
2022/10/25 07:54:56;;;;;;;29.17;26.87;;;14.70;99.90;;;;;;5039963;28;20274;-77
2022/10/25 07:57:22;;;;;;;18.53;17.33;;;14.90;99.90;;;;;;5037741;28;20230;-76
2022/10/25 07:59:49;;;;;;;19.10;17.90;;;15.10;99.90;;;;;;5031938;28;20175;-75
2022/10/25 08:02:16;;;;;;;33.40;31.27;;;15.20;99.90;;;;;;5029685;28;20183;-77
2022/10/25 08:05:02;;;;;;;12.73;11.93;;;15.40;99.90;;;;;;5025800;28;20278;-76
2022/10/25 08:07:49;;;;;;;17.30;15.93;;;15.60;99.90;;;;;;5011864;28;20294;-76
2022/10/25 08:10:34;;;;;;;12.67;11.73;;;16.00;99.90;;;;;;5022696;28;20535;-76
2022/10/25 08:13:20;;;;;;;11.13;10.23;;;16.30;99.90;;;;;;5029793;28;20230;-76
2022/10/25 08:16:07;;;;;;;19.90;18.70;;;16.80;99.90;;;;;;5029639;28;20252;-75
2022/10/25 08:18:52;;;;;;;16.77;15.67;;;17.10;99.90;;;;;;5029595;28;20199;-77
2022/10/25 08:21:38;;;;;;;14.70;13.67;;;17.30;99.90;;;;;;5032279;28;20201;-77
2022/10/25 08:24:24;;;;;;;15.93;15.13;;;17.50;99.90;;;;;;5035429;28;20191;-77
2022/10/25 08:26:54;;;;;;;38.50;28.93;;;17.60;99.90;;;;;;5032426;28;20625;-76
2022/10/25 08:29:41;;;;;;;44.57;41.63;;;17.70;99.90;;;;;;5030382;28;20182;-77
2022/10/25 08:32:28;;;;;;;42.13;39.23;;;17.80;99.90;;;;;;5030547;28;20198;-76
2022/10/25 08:35:14;;;;;;;48.83;46.23;;;17.90;99.90;;;;;;5030246;28;20191;-73
2022/10/25 08:38:00;;;;;;;49.73;47.17;;;18.00;99.90;;;;;;5029502;28;20183;-75
2022/10/25 08:41:13;;;;;;;24.50;22.83;;;18.20;99.90;;;;;;5019518;28;20224;-75
2022/10/25 08:44:23;;;;;;;11.43;10.60;;;18.40;99.90;;;;;;5010931;28;20199;-75
2022/10/25 08:47:20;;;;;;;7.10;6.70;;;18.40;99.90;;;;;;5019483;28;20221;-76
2022/10/25 08:50:18;;;;;;;7.80;7.17;;;18.50;99.90;;;;;;5028607;28;20217;-74
2022/10/25 08:53:12;;;;;;;5.60;5.30;;;18.70;99.90;;;;;;5018173;28;20214;-75
2022/10/25 08:56:00;;;;;;;5.67;5.17;;;19.00;99.90;;;;;;5028763;28;20274;-74
2022/10/25 08:58:59;;;;;;;6.10;5.60;;;19.30;99.90;;;;;;5036354;28;20191;-77
2022/10/25 09:01:51;;;;;;;5.30;4.33;;;19.70;99.90;;;;;;5038132;28;20190;-75
2022/10/25 09:04:36;;;;;;;11.47;5.63;;;20.10;99.90;;;;;;5031472;28;20664;-75
2022/10/25 09:07:06;;;;;;;47.50;45.10;;;20.50;99.90;;;;;;5032623;28;20696;-75
2022/10/25 09:10:15;;;;;;;46.63;44.17;;;20.50;99.90;;;;;;5033837;28;20187;-76
2022/10/25 09:13:32;;;;;;;60.37;57.47;;;20.90;99.90;;;;;;5014314;28;20223;-77
2022/10/25 09:16:27;;;;;;;48.20;45.73;;;21.30;99.90;;;;;;5012909;28;20219;-76
2022/10/25 09:19:23;;;;;;;52.37;49.47;;;21.00;99.90;;;;;;5021081;28;20210;-75
2022/10/25 09:21:58;;;;;;;48.97;46.47;;;20.40;99.90;;;;;;5024160;28;20198;-74
2022/10/25 09:24:53;;;;;;;69.47;65.80;;;20.50;99.90;;;;;;5015587;28;20257;-75
2022/10/25 09:27:49;;;;;;;51.10;48.47;;;20.60;99.90;;;;;;5028342;28;20219;-75
2022/10/25 09:30:40;;;;;;;33.97;32.03;;;20.70;99.90;;;;;;5031036;28;20523;-76
2022/10/25 09:33:29;;;;;;;30.03;28.00;;;21.20;99.90;;;;;;5032968;28;20692;-76
2022/10/25 09:36:15;;;;;;;33.33;31.60;;;21.30;99.90;;;;;;5032642;28;20210;-77
2022/10/25 09:39:01;;;;;;;32.23;30.47;;;21.20;99.90;;;;;;5031703;28;20183;-73
2022/10/25 09:41:51;;;;;;;34.77;32.60;;;21.40;99.90;;;;;;5031852;28;20300;-73
2022/10/25 09:44:35;;;;;;;38.83;36.58;;;21.20;99.90;;;;;;5032136;28;20187;-74
2022/10/25 09:48:03;;;;;;;41.90;39.57;;;21.00;99.90;;;;;;5031868;28;20309;-71
2022/10/25 09:50:38;;;;;;;28.42;26.48;;;21.10;99.90;;;;;;5032301;28;20214;-71
2022/10/25 09:53:24;;;;;;;17.67;16.60;;;21.30;99.90;;;;;;5032384;28;20222;-73
2022/10/25 09:56:11;;;;;;;37.43;35.53;;;21.20;99.90;;;;;;5031431;28;20248;-74
2022/10/25 09:58:51;;;;;;;38.90;36.67;;;20.80;99.90;;;;;;5032269;28;20178;-70
2022/10/25 10:01:39;;;;;;;16.00;15.20;;;21.20;99.90;;;;;;5032218;28;20676;-77
2022/10/25 10:04:25;;;;;;;11.60;10.97;;;21.70;99.90;;;;;;5031493;28;20212;-75
2022/10/25 10:07:20;;;;;;;10.37;9.87;;;22.10;99.90;;;;;;5015448;28;20215;-73
2022/10/25 10:09:48;;;;;;;12.20;11.43;;;22.40;99.90;;;;;;5012054;28;20784;-74
2022/10/25 10:12:52;;;;;;;10.15;9.35;;;22.60;99.90;;;;;;5029866;28;20187;-73
2022/10/25 10:15:42;;;;;;;17.27;16.17;;;22.60;99.90;;;;;;5025585;28;20187;-73
2022/10/25 10:18:20;;;;;;;13.52;12.82;;;22.80;99.90;;;;;;5069702;22;20888;-67
2022/10/25 10:21:09;;;;;;;21.30;20.10;;;23.00;99.90;;;;;;5046534;28;20243;-70
2022/10/25 10:23:41;;;;;;;23.65;22.30;;;22.50;99.90;;;;;;5032008;28;20183;-68
2022/10/25 10:26:30;;;;;;;28.75;26.70;;;22.60;99.90;;;;;;5030970;28;20279;-70
2022/10/25 10:29:08;;;;;;;25.20;23.70;;;22.60;99.90;;;;;;5012000;28;20559;-68
2022/10/25 10:31:42;;;;;;;26.02;24.65;;;23.10;99.90;;;;;;5011754;28;20190;-68
2022/10/25 10:34:42;;;;;;;22.00;20.83;;;22.80;99.90;;;;;;5012826;28;20226;-67
2022/10/25 10:37:11;;;;;;;11.30;10.60;;;23.30;99.90;;;;;;5010650;28;20192;-69
2022/10/25 10:39:58;;;;;;;14.07;12.93;;;23.30;99.90;;;;;;5012204;28;20179;-68
2022/10/25 10:42:35;;;;;;;11.70;11.10;;;23.40;99.90;;;;;;5028163;28;20194;-68
2022/10/25 10:45:11;;;;;;;5.82;5.32;;;24.20;99.90;;;;;;5031929;28;20544;-68
2022/10/25 10:47:49;;;;;;;7.68;7.00;;;24.50;99.90;;;;;;5032049;28;20195;-68
2022/10/25 10:50:24;;;;;;;10.15;9.52;;;24.00;99.90;;;;;;5032461;28;20183;-70
2022/10/25 10:53:19;;;;;;;7.18;6.13;;;24.10;99.90;;;;;;5027713;28;20206;-73
2022/10/25 10:55:48;;;;;;;6.18;5.68;;;24.50;99.90;;;;;;5023495;28;20176;-72
2022/10/25 10:58:33;;;;;;;4.78;4.38;;;24.80;99.90;;;;;;5030640;28;20195;-72
2022/10/25 11:01:07;;;;;;;4.53;4.20;;;24.60;99.90;;;;;;5026875;28;20187;-72
2022/10/25 11:03:42;;;;;;;4.97;4.65;;;25.00;99.90;;;;;;5021134;28;20647;-72
2022/10/25 11:06:15;;;;;;;3.88;3.58;;;25.10;99.90;;;;;;5029906;28;20186;-73
2022/10/25 11:08:42;;;;;;;3.85;3.55;;;25.90;99.90;;;;;;5030854;28;20341;-73
2022/10/25 11:11:21;;;;;;;3.75;3.42;;;26.00;99.90;;;;;;5025837;28;20198;-73
2022/10/25 11:13:55;;;;;;;4.80;2.78;;;26.70;99.80;;;;;;5011259;28;20215;-72
2022/10/25 11:16:36;;;;;;;4.38;3.30;;;27.00;99.20;;;;;;5011325;28;20175;-72
2022/10/25 11:19:27;;;;;;;3.90;3.60;;;26.50;97.90;;;;;;5010544;28;20183;-72
2022/10/25 11:22:27;;;;;;;3.25;3.08;;;26.60;98.80;;;;;;5021785;28;20811;-72
2022/10/25 11:25:12;;;;;;;3.63;2.90;;;27.00;97.10;;;;;;5030792;28;20183;-72
2022/10/25 11:27:59;;;;;;;5.03;4.53;;;27.20;96.50;;;;;;5029228;28;20676;-72
2022/10/25 11:30:39;;;;;;;6.97;3.80;;;27.30;94.90;;;;;;5030337;28;20179;-73
2022/10/25 11:33:28;;;;;;;3.97;3.67;;;27.10;95.70;;;;;;5024999;28;20218;-72
2022/10/25 11:36:06;;;;;;;3.40;3.20;;;28.00;93.30;;;;;;5014221;28;20310;-72
2022/10/25 11:38:56;;;;;;;3.88;3.55;;;28.40;91.20;;;;;;5018644;28;20195;-84
2022/10/25 11:41:46;;;;;;;3.55;3.35;;;28.40;92.90;;;;;;5025823;28;20195;-83
2022/10/25 11:44:39;;;;;;;3.38;3.08;;;28.30;92.00;;;;;;5034770;28;20215;-80
2022/10/25 11:47:24;;;;;;;5.45;5.07;;;28.20;90.50;;;;;;5032511;28;20252;-81
2022/10/25 11:50:27;;;;;;;3.63;3.33;;;29.20;89.60;;;;;;5037668;28;20202;-80
2022/10/25 11:53:15;;;;;;;4.57;4.18;;;29.20;89.40;;;;;;5019456;28;20271;-80
2022/10/25 11:56:08;;;;;;;4.72;3.65;;;28.20;87.60;;;;;;5018619;28;20251;-82
2022/10/25 11:58:53;;;;;;;5.05;3.88;;;27.80;90.70;;;;;;5031480;28;20283;-81
2022/10/25 12:01:45;;;;;;;4.03;3.80;;;27.80;88.90;;;;;;5043908;28;20190;-82
2022/10/25 12:04:23;;;;;;;3.47;3.28;;;27.80;88.90;;;;;;5065328;28;20178;-82
2022/10/25 12:06:52;;;;;;;3.53;3.28;;;28.10;90.60;;;;;;5041604;28;20685;-82
2022/10/25 12:09:46;;;;;;;7.25;6.93;;;28.60;89.40;;;;;;5041611;28;20221;-82
2022/10/25 12:12:20;;;;;;;6.30;5.90;;;28.60;86.50;;;;;;5028815;28;20183;-81
2022/10/25 12:14:50;;;;;;;10.68;9.88;;;28.90;85.40;;;;;;5041124;28;20246;-82
2022/10/25 12:17:27;;;;;;;9.15;8.65;;;28.40;83.90;;;;;;5041160;28;20237;-81
2022/10/25 12:19:56;;;;;;;6.55;6.15;;;27.90;90.40;;;;;;5043867;28;20190;-82
2022/10/25 12:22:35;;;;;;;7.38;6.88;;;27.40;90.20;;;;;;5037101;28;20179;-82
2022/10/25 12:25:12;;;;;;;6.13;5.63;;;27.50;89.80;;;;;;5021608;28;20197;-82
2022/10/25 12:27:41;;;;;;;4.47;4.13;;;27.10;90.40;;;;;;5017722;28;20294;-85
2022/10/25 12:30:14;;;;;;;5.57;5.25;;;27.00;90.90;;;;;;5014411;28;20180;-82
2022/10/25 12:32:44;;;;;;;9.48;9.05;;;27.50;88.90;;;;;;5046875;28;20194;-81
2022/10/25 12:35:30;;;;;;;8.75;8.00;;;28.00;87.10;;;;;;5036322;28;20209;-82
2022/10/25 12:38:05;;;;;;;7.25;6.78;;;27.90;87.60;;;;;;5037596;28;20735;-83
2022/10/25 12:40:39;;;;;;;6.82;6.43;;;27.80;88.00;;;;;;5053504;28;20197;-82
2022/10/25 12:43:15;;;;;;;6.38;4.35;;;27.30;88.30;;;;;;5016598;28;20284;-82
2022/10/25 12:45:44;;;;;;;6.20;5.85;;;27.00;90.30;;;;;;5017350;28;20259;-83
2022/10/25 12:48:56;;;;;;;8.45;7.82;;;27.50;87.80;;;;;;5030763;28;20195;-85
2022/10/25 12:51:49;;;;;;;7.97;7.38;;;28.50;87.30;;;;;;5039166;28;20247;-83
2022/10/25 12:54:58;;;;;;;4.07;3.85;;;27.10;89.40;;;;;;5034695;28;20225;-81
2022/10/25 12:57:47;;;;;;;4.55;4.15;;;24.30;92.20;;;;;;5025483;28;20583;-81
2022/10/25 13:00:19;;;;;;;6.35;5.95;;;24.20;94.60;;;;;;5032778;28;20190;-81
2022/10/25 13:03:26;;;;;;;5.72;5.22;;;25.10;92.30;;;;;;5041213;28;20243;-81
2022/10/25 13:06:16;;;;;;;4.35;4.05;;;25.50;91.80;;;;;;5020906;28;20188;-81
2022/10/25 13:08:44;;;;;;;3.60;3.30;;;26.10;90.90;;;;;;5019850;28;20227;-83
2022/10/25 13:11:10;;;;;;;5.15;2.92;;;25.40;89.90;;;;;;5021607;28;20178;-83
2022/10/25 13:13:40;;;;;;;4.07;3.78;;;24.50;91.30;;;;;;5022808;28;20691;-83
2022/10/25 13:16:09;;;;;;;10.85;10.25;;;23.70;93.50;;;;;;5013658;28;20180;-81